Time;durP1;ratioP1;P1;durP2;ratioP2;P2;SDS_P1;SDS_P2;PMS_P1;PMS_P2;Temp;Humidity;BMP_temperature;BMP_pressure;BME280_temperature;BME280_humidity;BME280_pressure;Samples;Min_cycle;Max_cycle;Signal;HPM_P1;HPM_P2
2023/05/02 00:00:36;;;;;;;12.60;5.73;;;;;;;11.09;86.93;101901.72;5031703;28;20068;-81
2023/05/02 00:03:03;;;;;;;10.63;4.80;;;;;;;11.08;86.03;101910.41;5032575;28;20079;-81
2023/05/02 00:05:28;;;;;;;9.40;4.38;;;;;;;11.07;85.51;101906.09;5032450;28;20057;-81
2023/05/02 00:07:54;;;;;;;7.47;3.70;;;;;;;11.09;85.16;101916.47;5051970;28;20496;-81
2023/05/02 00:10:19;;;;;;;7.67;3.83;;;;;;;11.10;86.93;101913.84;5052428;28;20053;-81
2023/05/02 00:12:45;;;;;;;8.60;3.93;;;;;;;11.04;86.86;101915.59;5052374;28;20033;-81
2023/05/02 00:15:10;;;;;;;8.67;3.87;;;;;;;11.07;85.63;101932.06;5051644;28;20029;-81
2023/05/02 00:17:36;;;;;;;6.60;3.73;;;;;;;11.10;86.79;101933.78;5052194;28;20096;-82
2023/05/02 00:20:03;;;;;;;17.07;7.53;;;;;;;11.05;88.47;101930.31;5052137;28;20024;-82
2023/05/02 00:22:29;;;;;;;19.40;9.18;;;;;;;11.02;89.86;101935.53;5052426;28;20055;-81
2023/05/02 00:24:57;;;;;;;19.57;8.63;;;;;;;10.99;89.69;101931.19;5052364;28;20048;-81
2023/05/02 00:27:23;;;;;;;20.80;9.77;;;;;;;10.96;89.48;101934.66;5051414;28;20021;-81
2023/05/02 00:29:48;;;;;;;24.50;12.13;;;;;;;10.88;91.77;101933.78;5052282;28;20392;-82
2023/05/02 00:32:13;;;;;;;25.67;13.53;;;;;;;10.72;92.99;101945.00;5052080;28;20083;-81
2023/05/02 00:34:39;;;;;;;26.10;14.20;;;;;;;10.53;94.08;101941.53;5051629;28;20082;-81
2023/05/02 00:37:04;;;;;;;26.23;13.47;;;;;;;10.46;93.83;101949.28;5039021;28;20029;-81
2023/05/02 00:39:29;;;;;;;26.10;13.43;;;;;;;10.29;94.60;101938.81;5031938;28;20036;-82
2023/05/02 00:41:58;;;;;;;26.10;13.23;;;;;;;10.24;94.48;101947.44;5033503;28;20112;-81
2023/05/02 00:44:23;;;;;;;25.30;12.38;;;;;;;10.24;94.39;101950.03;5035910;28;20068;-81
2023/05/02 00:46:49;;;;;;;23.47;11.50;;;;;;;10.22;94.00;101944.84;5036019;28;20064;-81
2023/05/02 00:49:15;;;;;;;24.92;12.80;;;;;;;10.18;95.24;101948.28;5035501;28;20389;-81
2023/05/02 00:51:40;;;;;;;26.40;12.87;;;;;;;10.16;93.76;101952.59;5035615;28;20024;-81
2023/05/02 00:54:05;;;;;;;23.50;12.13;;;;;;;10.11;94.26;101956.91;5035734;28;20026;-82
2023/05/02 00:56:31;;;;;;;20.83;10.10;;;;;;;10.11;92.95;101957.75;5034804;28;20026;-81
2023/05/02 00:58:57;;;;;;;21.43;10.23;;;;;;;10.10;93.78;101955.16;5037106;28;20032;-81
2023/05/02 01:01:28;;;;;;;19.13;8.63;;;;;;;10.11;93.00;101955.16;5055494;28;20032;-82
2023/05/02 01:03:59;;;;;;;20.23;9.35;;;;;;;10.04;93.60;101956.00;5054971;28;20025;-82
2023/05/02 01:06:38;;;;;;;21.65;10.13;;;;;;;9.94;93.38;101951.63;5047355;28;20470;-82
2023/05/02 01:09:46;;;;;;;20.23;9.10;;;;;;;9.84;93.20;101951.59;5035122;28;20037;-81
2023/05/02 01:12:34;;;;;;;19.95;9.10;;;;;;;9.76;93.71;101955.00;5036714;28;20033;-81
2023/05/02 01:15:04;;;;;;;20.00;8.45;;;;;;;9.75;93.34;101959.28;5035384;28;20106;-81
2023/05/02 01:17:33;;;;;;;21.52;9.18;;;;;;;9.66;94.50;101961.84;5034379;28;20044;-81
2023/05/02 01:20:04;;;;;;;18.42;8.23;;;;;;;9.65;93.72;101952.31;5035361;28;20456;-81
2023/05/02 01:22:31;;;;;;;17.90;8.02;;;;;;;9.67;94.27;101953.19;5035356;28;20029;-81
2023/05/02 01:25:11;;;;;;;15.82;6.80;;;;;;;9.74;93.28;101954.97;5034459;28;20426;-81
2023/05/02 01:28:01;;;;;;;11.80;5.43;;;;;;;9.79;93.24;101948.09;5034862;28;20029;-81
2023/05/02 01:30:29;;;;;;;11.63;5.10;;;;;;;9.83;92.58;101952.44;5034865;28;20096;-81
2023/05/02 01:32:57;;;;;;;11.40;5.15;;;;;;;9.89;92.02;101951.63;5035394;28;20017;-81
2023/05/02 01:35:25;;;;;;;8.98;4.20;;;;;;;9.94;90.96;101947.31;5034974;28;20017;-81
2023/05/02 01:37:52;;;;;;;13.82;5.95;;;;;;;9.93;92.19;101953.34;5053382;28;20124;-81
2023/05/02 01:40:19;;;;;;;15.18;6.72;;;;;;;9.94;91.72;101965.44;5054916;28;20036;-82
2023/05/02 01:42:48;;;;;;;15.82;6.72;;;;;;;9.91;92.50;101962.84;5054744;28;20465;-81
2023/05/02 01:45:14;;;;;;;12.45;5.85;;;;;;;9.93;91.55;101958.53;5053758;28;20355;-81
2023/05/02 01:47:43;;;;;;;9.82;4.72;;;;;;;9.94;91.60;101960.28;5054541;28;20079;-81
2023/05/02 01:50:12;;;;;;;8.02;4.03;;;;;;;9.96;91.76;101966.34;5054570;28;20025;-81
2023/05/02 01:52:39;;;;;;;7.25;3.80;;;;;;;10.01;90.83;101976.72;5053006;28;20036;-81
2023/05/02 01:55:08;;;;;;;;;;;;;;;10.03;90.90;101970.69;5038501;28;20021;-81
2023/05/02 01:57:35;;;;;;;9.20;4.40;;;;;;;10.00;92.83;101973.28;5034262;28;19978;-81
2023/05/02 02:00:02;;;;;;;12.02;5.70;;;;;;;10.04;92.17;101981.94;5033757;28;20120;-81
2023/05/02 02:02:29;;;;;;;11.27;5.20;;;;;;;10.02;92.41;101979.31;5034069;28;20033;-81
2023/05/02 02:04:56;;;;;;;11.13;5.03;;;;;;;10.06;90.63;101980.22;5034899;28;20025;-81
2023/05/02 02:07:21;;;;;;;11.05;4.97;;;;;;;10.05;92.44;101984.53;5048431;28;20021;-81
2023/05/02 02:09:47;;;;;;;9.10;4.80;;;;;;;10.06;92.19;101982.81;5054169;28;20037;-82
2023/05/02 02:12:24;;;;;;;16.57;7.40;;;;;;;10.03;92.54;101988.00;5054262;28;20484;-82
2023/05/02 02:15:01;;;;;;;14.52;6.40;;;;;;;10.04;92.07;101994.91;5049358;28;20038;-81
2023/05/02 02:17:37;;;;;;;15.18;6.82;;;;;;;10.02;93.68;101994.03;5034220;28;20058;-81
2023/05/02 02:20:05;;;;;;;13.13;6.28;;;;;;;10.04;92.11;101994.91;5033674;28;20100;-81
2023/05/02 02:22:36;;;;;;;12.90;5.70;;;;;;;10.04;93.43;101997.50;5033893;28;20029;-81
2023/05/02 02:25:04;;;;;;;18.10;8.95;;;;;;;9.96;95.07;101996.59;5034280;28;20095;-82
2023/05/02 02:27:29;;;;;;;18.33;8.07;;;;;;;9.92;94.88;101994.84;5033102;28;20394;-81
2023/05/02 02:29:56;;;;;;;20.73;10.60;;;;;;;9.90;96.10;102005.22;5034046;28;20033;-82
2023/05/02 02:32:21;;;;;;;22.13;10.90;;;;;;;9.84;96.22;102003.44;5034019;28;20052;-82
2023/05/02 02:34:47;;;;;;;19.57;9.60;;;;;;;9.86;94.60;102001.72;5033248;28;20473;-81
2023/05/02 02:37:18;;;;;;;22.77;11.53;;;;;;;9.82;97.29;102002.56;5034878;28;20083;-81
2023/05/02 02:40:00;;;;;;;21.08;10.48;;;;;;;9.83;95.78;102006.00;5033595;28;20022;-81
2023/05/02 02:42:38;;;;;;;20.70;10.65;;;;;;;9.83;95.92;102006.00;5032851;28;20151;-82
2023/05/02 02:45:06;;;;;;;19.50;9.45;;;;;;;9.83;96.59;102016.38;5033745;28;20109;-81
2023/05/02 02:47:42;;;;;;;20.98;11.30;;;;;;;9.77;96.44;102017.22;5032972;28;20022;-82
2023/05/02 02:50:08;;;;;;;22.27;11.75;;;;;;;9.73;97.18;102020.66;5045759;28;20044;-82
2023/05/02 02:52:46;;;;;;;20.60;10.50;;;;;;;9.75;96.71;102016.31;5053316;28;20389;-82
2023/05/02 02:55:18;;;;;;;21.65;11.60;;;;;;;9.68;97.35;102012.81;5047343;28;20470;-82
2023/05/02 02:57:59;;;;;;;19.02;9.90;;;;;;;9.76;95.61;102014.63;5034196;28;20538;-82
2023/05/02 03:00:27;;;;;;;20.15;10.48;;;;;;;9.77;97.14;102021.53;5032916;28;20025;-81
2023/05/02 03:02:53;;;;;;;21.00;10.75;;;;;;;9.76;96.49;102023.25;5032660;28;20056;-81
2023/05/02 03:05:20;;;;;;;17.23;8.50;;;;;;;9.81;96.93;102031.94;5032361;28;20025;-81
2023/05/02 03:07:46;;;;;;;19.50;10.00;;;;;;;9.82;97.36;102027.59;5050323;28;20025;-82
2023/05/02 03:10:11;;;;;;;16.57;8.50;;;;;;;9.84;96.72;102033.69;5052335;28;20094;-81
2023/05/02 03:12:38;;;;;;;13.50;6.90;;;;;;;9.88;95.45;102035.44;5053158;28;20031;-81
2023/05/02 03:15:45;;;;;;;13.05;6.38;;;;;;;9.93;96.18;102043.25;5052983;28;20120;-81
2023/05/02 03:18:10;;;;;;;14.80;7.07;;;;;;;9.94;97.50;102045.00;4999491;28;20083;-82
2023/05/02 03:20:35;;;;;;;17.13;8.80;;;;;;;9.91;97.17;102043.22;5052812;28;20045;-82
2023/05/02 03:23:01;;;;;;;18.67;9.37;;;;;;;9.88;97.10;102040.63;5051981;28;20380;-82
2023/05/02 03:25:26;;;;;;;18.90;8.77;;;;;;;9.92;96.71;102052.75;5052819;28;20060;-82
2023/05/02 03:27:52;;;;;;;15.50;7.90;;;;;;;9.92;96.61;102049.28;5053205;28;20021;-82
2023/05/02 03:30:18;;;;;;;14.03;6.80;;;;;;;9.95;96.01;102055.38;5052265;28;20025;-82
2023/05/02 03:32:43;;;;;;;9.87;5.40;;;;;;;9.99;95.40;102053.66;5052452;28;20045;-82
2023/05/02 03:35:09;;;;;;;12.20;5.60;;;;;;;10.01;96.61;102064.91;5052964;28;20029;-82
2023/05/02 03:37:34;;;;;;;15.70;7.40;;;;;;;9.97;97.45;102056.25;5035603;28;20061;-82
2023/05/02 03:39:59;;;;;;;15.20;7.37;;;;;;;9.96;97.78;102059.69;5032816;28;20417;-82
2023/05/02 03:42:27;;;;;;;20.27;9.17;;;;;;;9.87;99.48;102059.63;5032247;28;20021;-82
2023/05/02 03:44:53;;;;;;;20.60;10.13;;;;;;;9.77;100.00;102056.09;5032020;28;20432;-81
2023/05/02 03:47:18;;;;;;;16.97;8.80;;;;;;;9.78;99.77;102065.63;5032623;28;20025;-82
2023/05/02 03:49:43;;;;;;;13.00;7.30;;;;;;;9.80;99.07;102060.44;5032360;28;20017;-82
2023/05/02 03:52:08;;;;;;;17.57;7.47;;;;;;;9.72;99.90;102063.00;5031956;28;20079;-81
2023/05/02 03:54:34;;;;;;;16.73;6.73;;;;;;;9.63;99.50;102045.63;5032712;28;20045;-81
2023/05/02 03:57:00;;;;;;;16.13;6.63;;;;;;;9.64;99.77;102073.28;5032769;28;20053;-82
2023/05/02 03:59:26;;;;;;;16.67;6.10;;;;;;;9.61;100.00;102080.19;5031663;28;20021;-81
2023/05/02 04:01:54;;;;;;;16.37;6.20;;;;;;;9.55;99.84;102086.19;5098484;22;20067;-81
2023/05/02 04:04:19;;;;;;;12.43;5.38;;;;;;;9.56;98.96;102095.69;5052336;28;20417;-82
2023/05/02 04:06:44;;;;;;;12.77;5.03;;;;;;;9.53;99.00;102100.84;5042584;28;20061;-81
2023/05/02 04:09:10;;;;;;;11.87;4.63;;;;;;;9.52;96.69;102101.69;5032354;28;20036;-81
2023/05/02 04:11:35;;;;;;;10.93;4.17;;;;;;;9.49;96.33;102106.84;5032617;28;20025;-81
2023/05/02 04:14:03;;;;;;;13.70;4.23;;;;;;;9.40;94.53;102111.09;5032109;28;20431;-82
2023/05/02 04:16:28;;;;;;;9.93;3.42;;;;;;;9.14;91.97;102108.22;5034109;28;20071;-82
2023/05/02 04:18:53;;;;;;;10.30;3.33;;;;;;;9.14;91.28;102112.53;5036557;28;20104;-81
2023/05/02 04:21:19;;;;;;;8.63;3.07;;;;;;;9.12;90.61;102118.53;5035703;28;20032;-81
2023/05/02 04:23:44;;;;;;;6.93;2.67;;;;;;;9.11;90.62;102122.03;5036342;28;20049;-81
2023/05/02 04:26:09;;;;;;;8.17;2.77;;;;;;;9.07;90.04;102132.28;5035745;28;20029;-81
2023/05/02 04:28:35;;;;;;;8.87;2.93;;;;;;;9.06;90.29;102133.19;5036137;28;20367;-82
2023/05/02 04:31:02;;;;;;;5.27;2.60;;;;;;;9.02;89.55;102140.00;5036500;28;20031;-81
2023/05/02 04:33:27;;;;;;;5.15;2.47;;;;;;;9.02;89.32;102141.75;5035138;28;20034;-82
2023/05/02 04:35:52;;;;;;;6.87;2.53;;;;;;;9.03;88.82;102141.75;5037171;28;20042;-81
2023/05/02 04:38:18;;;;;;;8.83;2.43;;;;;;;8.88;86.67;102147.63;5055983;28;20025;-81
2023/05/02 04:40:43;;;;;;;5.30;2.20;;;;;;;8.91;87.15;102154.53;5054846;28;20031;-81
2023/05/02 04:43:09;;;;;;;4.37;2.20;;;;;;;8.92;87.27;102151.09;5056181;28;20104;-82
2023/05/02 04:45:35;;;;;;;4.53;2.17;;;;;;;8.91;85.74;102160.59;5055372;28;20478;-82
2023/05/02 04:48:01;;;;;;;5.15;2.28;;;;;;;8.86;85.02;102164.00;5055177;28;20122;-82
2023/05/02 04:50:27;;;;;;;6.60;2.10;;;;;;;8.81;85.06;102162.19;5055474;28;20048;-82
2023/05/02 04:52:52;;;;;;;5.72;1.90;;;;;;;8.77;85.77;102155.25;5055827;28;20393;-82
2023/05/02 04:55:18;;;;;;;7.03;2.20;;;;;;;8.87;85.75;102176.09;5055182;28;20078;-82
2023/05/02 04:57:43;;;;;;;3.87;1.97;;;;;;;8.90;85.24;102182.16;5055531;28;20047;-82
2023/05/02 05:00:09;;;;;;;6.30;2.63;;;;;;;8.83;84.50;102185.53;5055647;28;20473;-82
2023/05/02 05:02:34;;;;;;;8.07;2.33;;;;;;;8.83;85.24;102188.13;5054409;28;20041;-82
2023/05/02 05:05:01;;;;;;;8.73;2.77;;;;;;;8.70;84.76;102181.88;5055702;28;20500;-82
2023/05/02 05:07:29;;;;;;;4.50;2.10;;;;;;;8.78;85.24;102195.81;5040728;28;20072;-83
2023/05/02 05:09:57;;;;;;;5.78;2.60;;;;;;;8.74;84.90;102194.03;5035024;28;20102;-82
2023/05/02 05:12:23;;;;;;;6.40;2.30;;;;;;;8.77;85.03;102199.28;5034914;28;20086;-82
2023/05/02 05:14:49;;;;;;;4.73;2.13;;;;;;;8.75;85.06;102190.59;5035358;28;20030;-82
2023/05/02 05:17:14;;;;;;;5.32;2.30;;;;;;;8.77;84.59;102199.28;5034735;28;20474;-83
2023/05/02 05:19:40;;;;;;;6.27;2.07;;;;;;;8.82;84.96;102220.03;5035194;28;20035;-82
2023/05/02 05:22:05;;;;;;;7.03;2.40;;;;;;;8.79;84.01;102218.25;5035221;28;20109;-82
2023/05/02 05:24:30;;;;;;;7.53;2.20;;;;;;;8.84;84.95;102214.88;5034583;28;20025;-81
2023/05/02 05:26:55;;;;;;;4.63;2.20;;;;;;;8.86;83.94;102219.22;5035114;28;20029;-83
2023/05/02 05:29:21;;;;;;;6.83;2.30;;;;;;;8.88;83.88;102217.53;5034050;28;20494;-82
2023/05/02 05:31:49;;;;;;;2.33;1.93;;;;;;;8.94;83.96;102229.69;5051734;28;20029;-83
2023/05/02 05:34:14;;;;;;;4.82;2.10;;;;;;;9.01;83.60;102223.72;5055050;28;20032;-84
2023/05/02 05:36:40;;;;;;;3.33;1.93;;;;;;;9.06;82.26;102229.00;5046032;28;20025;-80
2023/05/02 05:39:05;;;;;;;6.33;2.57;;;;;;;9.05;81.88;102219.47;5036262;28;20021;-80
2023/05/02 05:41:32;;;;;;;3.80;2.17;;;;;;;9.00;80.30;102239.25;5034968;28;20033;-81
2023/05/02 05:44:00;;;;;;;2.17;1.85;;;;;;;9.02;81.26;102245.34;5034356;28;20037;-80
2023/05/02 05:46:25;;;;;;;2.78;1.80;;;;;;;9.06;82.22;102239.34;5034719;28;20113;-81
2023/05/02 05:48:50;;;;;;;3.70;1.90;;;;;;;9.04;81.10;102241.06;5034485;28;20128;-81
2023/05/02 05:51:18;;;;;;;4.10;2.10;;;;;;;9.02;80.80;102238.41;5033618;28;20029;-81
2023/05/02 05:53:44;;;;;;;6.43;2.13;;;;;;;9.03;80.39;102241.91;5033404;28;20030;-80
2023/05/02 05:56:10;;;;;;;3.80;2.10;;;;;;;9.05;80.43;102242.78;5034106;28;20026;-80
2023/05/02 05:58:36;;;;;;;6.00;2.10;;;;;;;9.03;79.32;102247.94;5033779;28;20433;-81
2023/05/02 06:01:01;;;;;;;4.83;1.90;;;;;;;9.05;79.44;102256.59;5034194;28;20522;-80
2023/05/02 06:03:27;;;;;;;6.13;2.30;;;;;;;9.08;78.78;102254.06;5033952;28;20280;-80
2023/05/02 06:05:52;;;;;;;4.73;2.10;;;;;;;9.11;78.80;102256.69;5034794;28;20029;-80
2023/05/02 06:08:20;;;;;;;4.57;2.23;;;;;;;9.15;78.53;102267.97;5053826;28;20033;-80
2023/05/02 06:10:46;;;;;;;7.68;2.20;;;;;;;9.17;78.55;102270.56;5054367;28;20461;-80
2023/05/02 06:13:11;;;;;;;7.50;2.20;;;;;;;9.20;79.02;102270.63;5053717;28;20108;-80
2023/05/02 06:15:37;;;;;;;5.97;2.30;;;;;;;9.17;78.64;102271.44;5053695;28;20025;-80
2023/05/02 06:18:05;;;;;;;9.00;2.80;;;;;;;9.21;79.25;102272.34;5054145;28;20182;-80
2023/05/02 06:20:30;;;;;;;5.70;2.28;;;;;;;9.22;78.89;102276.69;5053329;28;20039;-80
2023/05/02 06:22:55;;;;;;;7.10;2.40;;;;;;;9.21;78.66;102282.72;5054126;28;20385;-82
2023/05/02 06:25:21;;;;;;;8.03;2.40;;;;;;;9.18;79.10;102278.34;5053864;28;20036;-81
2023/05/02 06:27:46;;;;;;;4.67;2.20;;;;;;;9.29;80.27;102290.59;5035286;28;20021;-82
2023/05/02 06:30:12;;;;;;;4.17;2.20;;;;;;;9.45;79.88;102295.13;5034168;28;20026;-81
2023/05/02 06:32:37;;;;;;;6.47;2.17;;;;;;;9.59;79.19;102313.41;5033712;28;20032;-81
2023/05/02 06:35:03;;;;;;;7.90;2.40;;;;;;;9.64;79.35;102306.59;5033300;28;20018;-81
2023/05/02 06:37:32;;;;;;;3.33;2.00;;;;;;;9.77;79.73;102309.31;5048297;28;20029;-80
2023/05/02 06:39:57;;;;;;;5.57;2.10;;;;;;;9.87;78.98;102313.75;5052704;28;20020;-80
2023/05/02 06:42:23;;;;;;;5.73;2.30;;;;;;;9.99;79.22;102323.38;5053056;28;20021;-80
2023/05/02 06:44:50;;;;;;;4.47;2.20;;;;;;;10.09;78.62;102332.16;5053617;28;20045;-81
2023/05/02 06:49:54;;;;;;;9.35;2.78;;;;;;;10.08;77.27;102335.59;5076183;23;20514;-84
2023/05/02 06:52:20;;;;;;;9.98;2.70;;;;;;;10.05;77.57;102344.22;5053189;28;20043;-83
2023/05/02 06:55:16;;;;;;;4.30;2.20;;;;;;;10.17;77.01;102341.75;5052930;28;20536;-83
2023/05/02 06:58:06;;;;;;;10.93;3.05;;;;;;;10.05;77.14;102345.06;5053556;28;20048;-83
2023/05/02 07:00:49;;;;;;;12.50;3.05;;;;;;;9.77;76.36;102330.06;5053183;28;20396;-83
2023/05/02 07:03:33;;;;;;;6.07;2.70;;;;;;;9.93;77.95;102352.72;5052765;28;20028;-83
2023/05/02 07:06:01;;;;;;;9.15;2.75;;;;;;;10.09;76.69;102356.34;5049500;28;20458;-83
2023/05/02 07:08:26;;;;;;;7.05;2.40;;;;;;;10.35;75.76;102355.75;5031779;28;20551;-83
2023/05/02 07:10:52;;;;;;;5.57;2.43;;;;;;;10.39;76.03;102360.19;5033690;28;20037;-83
2023/05/02 07:13:20;;;;;;;9.70;3.00;;;;;;;10.41;75.51;102362.78;5033323;28;20075;-83
2023/05/02 07:15:45;;;;;;;9.30;2.90;;;;;;;10.40;75.42;102363.63;5032431;28;20036;-84
2023/05/02 07:18:10;;;;;;;9.63;2.90;;;;;;;10.36;74.03;102380.88;5033047;28;20108;-83
2023/05/02 07:20:37;;;;;;;11.57;3.27;;;;;;;10.18;75.12;102366.84;5032964;28;20084;-83
2023/05/02 07:23:05;;;;;;;12.38;3.40;;;;;;;10.07;75.57;102370.16;5032444;28;20052;-83
2023/05/02 07:25:31;;;;;;;9.25;2.85;;;;;;;10.16;76.14;102388.44;5037992;28;20029;-83
2023/05/02 07:27:56;;;;;;;10.47;2.97;;;;;;;10.11;75.62;102382.34;5052703;28;20033;-83
2023/05/02 07:30:22;;;;;;;8.80;3.20;;;;;;;10.11;74.83;102385.78;5052109;28;20465;-84
2023/05/02 07:32:47;;;;;;;9.67;2.90;;;;;;;10.09;74.91;102384.03;5052930;28;20105;-83
2023/05/02 07:35:13;;;;;;;8.83;2.80;;;;;;;10.27;75.29;102384.22;5052820;28;20302;-83
2023/05/02 07:37:38;;;;;;;9.33;3.07;;;;;;;10.36;71.55;102384.31;5036229;28;20482;-83
2023/05/02 07:40:04;;;;;;;11.77;3.20;;;;;;;10.31;71.32;102391.19;5033043;28;20018;-84
2023/05/02 07:42:30;;;;;;;10.77;2.78;;;;;;;10.31;73.00;102396.38;5032673;28;20067;-83
2023/05/02 07:44:55;;;;;;;9.20;2.97;;;;;;;10.35;70.96;102395.59;5032044;28;20029;-83
2023/05/02 07:47:21;;;;;;;9.47;2.93;;;;;;;10.33;72.21;102405.06;5032479;28;20462;-84
2023/05/02 07:49:50;;;;;;;5.87;2.70;;;;;;;10.23;73.28;102405.81;5032782;28;20054;-83
2023/05/02 07:52:15;;;;;;;11.90;3.35;;;;;;;9.96;73.68;102411.56;5031583;28;20454;-83
2023/05/02 07:54:41;;;;;;;8.80;3.30;;;;;;;9.97;73.56;102415.88;5032467;28;20037;-82
2023/05/02 07:57:07;;;;;;;9.50;2.90;;;;;;;10.01;71.25;102417.66;5032962;28;20021;-83
2023/05/02 07:59:33;;;;;;;7.90;3.00;;;;;;;9.98;71.23;102422.78;5290562;22;20429;-83
2023/05/02 08:01:58;;;;;;;6.10;2.50;;;;;;;9.94;69.94;102426.22;5032630;28;20029;-83
2023/05/02 08:04:24;;;;;;;7.50;2.83;;;;;;;9.87;69.32;102420.09;5177115;22;20045;-83
2023/05/02 08:06:49;;;;;;;12.00;2.87;;;;;;;9.77;68.56;102429.44;5044036;28;20095;-83
2023/05/02 08:09:15;;;;;;;7.83;2.60;;;;;;;9.78;69.11;102428.59;5032706;28;20140;-83
2023/05/02 08:11:41;;;;;;;6.43;2.53;;;;;;;9.86;68.86;102433.91;5122745;22;20045;-83
2023/05/02 08:14:26;;;;;;;4.43;2.23;;;;;;;9.87;69.20;102436.50;5032608;28;20025;-83
2023/05/02 08:16:54;;;;;;;7.90;2.77;;;;;;;9.88;69.41;102435.66;5021309;28;20053;-83
2023/05/02 08:19:19;;;;;;;4.38;2.40;;;;;;;9.96;70.00;102438.34;5012120;28;20022;-83
2023/05/02 08:21:45;;;;;;;6.53;2.53;;;;;;;10.11;69.70;102442.84;5012770;28;20491;-83
2023/05/02 08:24:10;;;;;;;8.30;3.00;;;;;;;10.05;66.69;102446.25;5012819;28;20026;-84
2023/05/02 08:26:35;;;;;;;6.20;2.50;;;;;;;10.07;66.63;102443.69;5011615;28;20532;-83
2023/05/02 08:29:04;;;;;;;5.67;2.33;;;;;;;10.15;66.67;102452.44;5012429;28;20164;-83
2023/05/02 08:31:29;;;;;;;10.18;2.83;;;;;;;10.12;66.37;102447.19;5012380;28;20018;-82
2023/05/02 08:33:55;;;;;;;6.57;2.70;;;;;;;10.23;66.72;102455.13;5011866;28;20018;-83
2023/05/02 08:36:20;;;;;;;9.13;2.60;;;;;;;10.31;67.19;102462.97;5017025;28;20071;-84
2023/05/02 08:38:46;;;;;;;4.17;2.20;;;;;;;10.47;66.92;102467.53;5032155;28;20030;-83
2023/05/02 08:41:19;;;;;;;7.33;2.60;;;;;;;10.65;64.47;102464.28;5031920;28;20022;-83
2023/05/02 08:43:45;;;;;;;4.80;2.30;;;;;;;10.86;64.33;102472.28;5032119;28;20462;-83
2023/05/02 08:46:12;;;;;;;5.82;2.20;;;;;;;11.02;63.86;102471.53;5032153;28;20036;-83
2023/05/02 08:48:39;;;;;;;;;;;;;;;11.12;62.91;102473.38;5031200;28;20029;-83
2023/05/02 08:51:08;;;;;;;7.80;2.33;;;;;;;11.20;61.96;102473.44;5032164;28;19912;-84
2023/05/02 08:53:35;;;;;;;8.00;2.88;;;;;;;11.13;58.92;102476.84;5030532;28;20029;-83
2023/05/02 08:56:00;;;;;;;6.88;2.60;;;;;;;11.11;61.55;102468.16;5016383;28;20026;-83
2023/05/02 08:58:26;;;;;;;4.70;2.10;;;;;;;11.30;62.56;102481.31;5012048;28;20355;-82
2023/05/02 09:00:52;;;;;;;5.97;2.60;;;;;;;11.38;58.43;102480.50;5012220;28;20030;-84
2023/05/02 09:03:28;;;;;;;6.45;2.50;;;;;;;11.41;61.41;102477.94;5013829;28;20026;-82
2023/05/02 09:06:03;;;;;;;9.25;2.70;;;;;;;11.32;57.10;102492.59;5015006;28;20445;-82
2023/05/02 09:08:28;;;;;;;5.80;2.50;;;;;;;11.28;59.42;102491.69;5024467;28;20100;-83
2023/05/02 09:10:54;;;;;;;8.47;2.60;;;;;;;11.20;58.33;102483.81;5034891;28;20021;-83
2023/05/02 09:13:35;;;;;;;7.63;2.93;;;;;;;11.49;60.29;102503.13;5035514;28;20374;-82
2023/05/02 09:16:05;;;;;;;6.80;2.60;;;;;;;11.53;58.70;102499.69;5034815;28;20021;-83
2023/05/02 09:18:33;;;;;;;7.85;2.78;;;;;;;11.65;58.68;102494.53;5034084;28;20025;-83
2023/05/02 09:21:00;;;;;;;7.43;2.70;;;;;;;11.66;57.65;102500.63;5035358;28;20477;-83
2023/05/02 09:23:39;;;;;;;7.07;2.50;;;;;;;11.63;58.67;102511.00;5033082;28;20059;-83
2023/05/02 09:26:23;;;;;;;5.97;2.20;;;;;;;11.58;60.44;102511.88;5026283;28;20084;-83
2023/05/02 09:28:55;;;;;;;7.68;2.53;;;;;;;11.53;59.92;102518.75;5014202;28;20026;-82
2023/05/02 09:31:25;;;;;;;3.42;2.30;;;;;;;11.52;58.45;102521.34;5014447;28;20478;-83
2023/05/02 09:33:52;;;;;;;6.60;2.70;;;;;;;11.30;59.14;102520.28;5014985;28;20034;-83
2023/05/02 09:36:19;;;;;;;8.90;2.70;;;;;;;11.17;58.86;102519.31;5018077;28;20032;-82
2023/05/02 09:38:47;;;;;;;7.68;2.65;;;;;;;11.16;59.00;102508.03;5034859;28;20079;-83
2023/05/02 09:41:13;;;;;;;8.00;2.60;;;;;;;11.15;57.41;102521.88;5034530;28;20029;-82
2023/05/02 09:43:39;;;;;;;8.67;3.13;;;;;;;11.17;57.96;102519.31;5034035;28;20022;-82
2023/05/02 09:46:09;;;;;;;8.40;2.70;;;;;;;11.22;58.30;102526.28;5034869;28;20064;-83
2023/05/02 09:48:54;;;;;;;6.97;2.70;;;;;;;11.34;57.70;102529.88;5033775;28;20033;-82
2023/05/02 09:51:21;;;;;;;6.93;2.58;;;;;;;11.43;58.96;102530.78;5033503;28;20110;-83
2023/05/02 09:53:47;;;;;;;7.00;2.80;;;;;;;11.58;58.17;102529.19;5033518;28;20034;-83
2023/05/02 09:56:12;;;;;;;9.37;2.90;;;;;;;11.59;59.08;102534.41;5033988;28;20037;-82
2023/05/02 09:58:38;;;;;;;7.30;2.67;;;;;;;11.67;59.48;102541.38;5033844;28;20356;-83
2023/05/02 10:01:03;;;;;;;6.13;2.70;;;;;;;11.74;58.15;102538.84;5034512;28;20026;-83
2023/05/02 10:05:57;;;;;;;5.50;2.53;;;;;;;11.90;58.81;102537.22;5011709;28;20042;-82
2023/05/02 10:08:27;;;;;;;8.25;2.90;;;;;;;12.03;59.60;102539.94;5014549;28;20029;-83
2023/05/02 10:10:57;;;;;;;8.73;3.08;;;;;;;12.35;58.76;102544.44;5013984;28;20076;-83
2023/05/02 10:13:31;;;;;;;6.20;2.67;;;;;;;12.51;58.36;102538.41;5013492;28;20033;-83
2023/05/02 10:16:02;;;;;;;6.28;2.50;;;;;;;12.78;55.35;102539.38;5014951;28;20025;-80
2023/05/02 10:18:37;;;;;;;6.25;2.90;;;;;;;12.46;54.97;102534.94;5013688;28;20379;-83
2023/05/02 10:21:10;;;;;;;3.97;2.50;;;;;;;12.40;55.80;102542.69;5014738;28;20029;-82
2023/05/02 10:23:40;;;;;;;9.13;3.03;;;;;;;12.21;53.84;102554.78;5014294;28;20026;-83
2023/05/02 10:26:05;;;;;;;5.97;2.60;;;;;;;12.06;55.89;102545.13;5013640;28;20022;-82
2023/05/02 10:28:31;;;;;;;7.70;2.60;;;;;;;12.13;57.27;102552.13;5014026;28;20040;-82
2023/05/02 10:31:02;;;;;;;5.73;2.53;;;;;;;12.09;55.01;102549.50;5014281;28;20025;-82
2023/05/02 10:33:27;;;;;;;6.50;2.40;;;;;;;12.09;56.57;102547.75;5013387;28;20390;-82
2023/05/02 10:35:52;;;;;;;5.30;2.27;;;;;;;12.26;57.01;102549.59;5014320;28;20021;-82
2023/05/02 10:38:20;;;;;;;4.07;2.10;;;;;;;12.44;57.47;102551.41;5014113;28;20026;-82
2023/05/02 10:40:56;;;;;;;3.20;2.00;;;;;;;12.66;55.35;102549.75;5013176;28;20470;-83
2023/05/02 10:43:29;;;;;;;5.45;2.67;;;;;;;12.55;54.62;102554.06;5014362;28;20022;-83
2023/05/02 10:45:55;;;;;;;7.25;2.78;;;;;;;12.36;54.98;102549.63;5013414;28;20032;-82
2023/05/02 10:48:21;;;;;;;6.93;2.60;;;;;;;12.48;56.72;102540.13;5013418;28;20049;-82
2023/05/02 10:50:50;;;;;;;7.70;2.80;;;;;;;12.71;52.63;102545.44;5013780;28;20021;-82
2023/05/02 10:53:43;;;;;;;7.10;3.00;;;;;;;13.06;51.49;102542.00;5012677;28;20462;-82
2023/05/02 10:58:34;;;;;;;7.22;2.63;;;;;;;13.44;50.10;102543.81;5363705;22;20052;-82
2023/05/02 11:01:32;;;;;;;4.80;2.60;;;;;;;13.69;51.25;102548.16;5052530;28;20463;-82
2023/05/02 11:04:05;;;;;;;5.93;2.70;;;;;;;13.25;47.19;102557.69;5053309;28;20526;-82
2023/05/02 11:06:35;;;;;;;7.20;2.90;;;;;;;13.06;48.42;102554.19;5052984;28;20039;-83
2023/05/02 11:09:22;;;;;;;5.20;2.60;;;;;;;13.23;51.54;102552.47;5052352;28;20427;-82
2023/05/02 11:11:51;;;;;;;6.97;2.80;;;;;;;13.64;50.11;102558.59;5053087;28;20036;-82
2023/05/02 11:14:26;;;;;;;4.97;2.63;;;;;;;13.98;49.58;102565.53;5052646;28;20530;-80
2023/05/02 11:16:57;;;;;;;4.75;2.28;;;;;;;14.35;51.64;102565.44;5053270;28;20112;-83
2023/05/02 11:19:23;;;;;;;3.90;2.22;;;;;;;14.71;50.04;102562.69;5052849;28;20028;-83
2023/05/02 11:21:49;;;;;;;5.53;2.65;;;;;;;14.76;45.36;102563.50;5052156;28;20020;-83
2023/05/02 11:24:40;;;;;;;6.27;3.00;;;;;;;14.20;45.75;102571.53;5052758;28;20359;-81
2023/05/02 11:27:37;;;;;;;6.03;2.30;;;;;;;14.35;50.19;102565.44;5052015;28;20032;-83
2023/05/02 11:30:07;;;;;;;6.80;2.65;;;;;;;14.13;46.95;102578.53;5051882;28;20436;-83
2023/05/02 11:32:48;;;;;;;5.93;2.40;;;;;;;14.12;48.24;102563.75;5052636;28;20028;-83
2023/05/02 11:35:23;;;;;;;5.72;2.85;;;;;;;13.85;48.78;102567.25;5052175;28;20031;-82
2023/05/02 11:38:13;;;;;;;5.82;2.38;;;;;;;14.21;48.43;102563.72;5052507;28;20040;-82
2023/05/02 11:40:39;;;;;;;4.88;2.60;;;;;;;14.27;47.30;102565.44;5044612;28;20043;-83